createdAt,value
2023-03-03T00:01:07.039Z,-2.20
2023-03-03T00:03:35.440Z,-2.20
2023-03-03T00:06:05.962Z,-2.20
2023-03-03T00:08:33.988Z,-2.20
2023-03-03T00:11:03.288Z,-2.20
2023-03-03T00:13:32.923Z,-2.20
2023-03-03T00:16:21.896Z,-2.20
2023-03-03T00:18:50.522Z,-2.20
2023-03-03T00:21:29.416Z,-2.20
2023-03-03T00:24:21.708Z,-2.20
2023-03-03T00:26:51.397Z,-2.10
2023-03-03T00:29:37.812Z,-2.20
2023-03-03T00:32:26.917Z,-2.10
2023-03-03T00:34:56.517Z,-2.10
2023-03-03T00:37:31.038Z,-2.10
2023-03-03T00:40:14.822Z,-2.10
2023-03-03T00:42:43.218Z,-2.20
2023-03-03T00:45:27.042Z,-2.10
2023-03-03T00:47:57.262Z,-2.10
2023-03-03T00:50:34.440Z,-2.20
2023-03-03T00:53:08.281Z,-2.20
2023-03-03T00:55:36.881Z,-2.20
2023-03-03T00:58:05.628Z,-2.20
2023-03-03T01:00:38.706Z,-2.20
2023-03-03T01:03:14.037Z,-2.20
2023-03-03T01:05:42.294Z,-2.20
2023-03-03T01:08:10.587Z,-2.30
2023-03-03T01:10:43.427Z,-2.20
2023-03-03T01:13:11.920Z,-2.20
2023-03-03T01:15:41.183Z,-2.20
2023-03-03T01:18:11.224Z,-2.20
2023-03-03T01:20:39.330Z,-2.20
2023-03-03T01:23:07.578Z,-2.40
2023-03-03T01:25:36.061Z,-2.30
2023-03-03T01:28:04.741Z,-2.30
2023-03-03T01:30:33.319Z,-2.30
2023-03-03T01:33:01.303Z,-2.30
2023-03-03T01:35:30.872Z,-2.30
2023-03-03T01:37:59.442Z,-2.20
2023-03-03T01:40:29.592Z,-2.30
2023-03-03T01:42:59.907Z,-2.30
2023-03-03T01:45:30.261Z,-2.30
2023-03-03T01:48:02.720Z,-2.30
2023-03-03T01:50:45.163Z,-2.40
2023-03-03T01:53:16.859Z,-2.40
2023-03-03T01:55:46.457Z,-2.40
2023-03-03T01:58:20.026Z,-2.40
2023-03-03T02:00:51.752Z,-2.40
2023-03-03T02:03:22.199Z,-2.40
2023-03-03T02:05:54.228Z,-2.40
2023-03-03T02:08:27.195Z,-2.40
2023-03-03T02:10:56.586Z,-2.50
2023-03-03T02:13:26.403Z,-2.50
2023-03-03T02:15:56.689Z,-2.50
2023-03-03T02:18:25.120Z,-2.50
2023-03-03T02:20:59.264Z,-2.50
2023-03-03T02:23:32.068Z,-2.50
2023-03-03T02:26:14.025Z,-2.50
2023-03-03T02:28:43.338Z,-2.60
2023-03-03T02:31:15.856Z,-2.60
2023-03-03T02:33:46.963Z,-2.60
2023-03-03T02:36:17.656Z,-2.60
2023-03-03T02:38:50.647Z,-2.60
2023-03-03T02:41:29.474Z,-2.60
2023-03-03T02:44:02.035Z,-2.60
2023-03-03T02:46:34.932Z,-2.60
2023-03-03T02:49:03.442Z,-2.70
2023-03-03T02:51:31.468Z,-2.70
2023-03-03T02:53:59.535Z,-2.70
2023-03-03T02:56:31.616Z,-2.60
2023-03-03T02:59:00.138Z,-2.60
2023-03-03T03:01:31.735Z,-2.60
2023-03-03T03:04:00.199Z,-2.60
2023-03-03T03:06:28.944Z,-2.60
2023-03-03T03:08:57.883Z,-2.60
2023-03-03T03:11:25.869Z,-2.60
2023-03-03T03:13:55.153Z,-2.50
2023-03-03T03:16:24.134Z,-2.50
2023-03-03T03:18:52.145Z,-2.50
2023-03-03T03:21:20.571Z,-2.50
2023-03-03T03:23:48.980Z,-2.50
2023-03-03T03:26:17.072Z,-2.50
2023-03-03T03:28:45.564Z,-2.50
2023-03-03T03:31:15.304Z,-2.50
2023-03-03T03:33:43.624Z,-2.50
2023-03-03T03:36:12.744Z,-2.50
2023-03-03T03:38:42.319Z,-2.50
2023-03-03T03:41:12.076Z,-2.40
2023-03-03T03:43:40.330Z,-2.40
2023-03-03T03:46:09.237Z,-2.50
2023-03-03T03:48:38.608Z,-2.40
2023-03-03T03:51:07.854Z,-2.40
2023-03-03T03:53:36.190Z,-2.40
2023-03-03T03:56:04.250Z,-2.40
2023-03-03T03:58:32.863Z,-2.50
2023-03-03T04:01:05.955Z,-2.40
2023-03-03T04:03:36.420Z,-2.40
2023-03-03T04:06:09.219Z,-2.40
2023-03-03T04:08:37.238Z,-2.40
2023-03-03T04:11:05.485Z,-2.40
2023-03-03T04:13:35.267Z,-2.50
2023-03-03T04:16:06.297Z,-2.40
2023-03-03T04:18:34.330Z,-2.50
2023-03-03T04:21:02.690Z,-2.50
2023-03-03T04:23:32.096Z,-2.50
2023-03-03T04:26:01.561Z,-2.50
2023-03-03T04:28:29.607Z,-2.40
2023-03-03T04:30:58.226Z,-2.40
2023-03-03T04:33:27.524Z,-2.40
2023-03-03T04:35:56.007Z,-2.40
2023-03-03T04:38:24.302Z,-2.40
2023-03-03T04:40:55.086Z,-2.40
2023-03-03T04:43:24.187Z,-2.40
2023-03-03T04:45:53.221Z,-2.50
2023-03-03T04:48:21.342Z,-2.50
2023-03-03T04:50:49.421Z,-2.50
2023-03-03T04:53:17.423Z,-2.50
2023-03-03T04:55:45.702Z,-2.50
2023-03-03T04:58:15.988Z,-2.50
2023-03-03T05:00:44.545Z,-2.50
2023-03-03T05:03:13.771Z,-2.50
2023-03-03T05:05:43.550Z,-2.50
2023-03-03T05:08:11.436Z,-2.50
2023-03-03T05:10:39.655Z,-2.50
2023-03-03T05:13:08.194Z,-2.40
2023-03-03T05:15:37.630Z,-2.40
2023-03-03T05:18:05.779Z,-2.40
2023-03-03T05:20:33.717Z,-2.40
2023-03-03T05:23:01.717Z,-2.40
2023-03-03T05:25:29.721Z,-2.40
2023-03-03T05:27:57.641Z,-2.50
2023-03-03T05:30:25.645Z,-2.50
2023-03-03T05:32:55.981Z,-2.40
2023-03-03T05:35:23.904Z,-2.40
2023-03-03T05:37:52.728Z,-2.30
2023-03-03T05:40:20.756Z,-2.30
2023-03-03T05:42:48.702Z,-2.20
2023-03-03T05:45:16.859Z,-2.20
2023-03-03T05:47:44.765Z,-2.10
2023-03-03T05:50:14.270Z,-2.00
2023-03-03T05:52:42.324Z,-2.00
2023-03-03T05:55:11.628Z,-1.90
2023-03-03T05:57:39.649Z,-1.90
2023-03-03T06:00:09.446Z,-1.80
2023-03-03T06:02:43.884Z,-1.80
2023-03-03T06:05:13.491Z,-1.70
2023-03-03T06:07:41.772Z,-1.60
2023-03-03T06:10:10.839Z,-1.60
2023-03-03T06:12:42.148Z,-1.50
2023-03-03T06:15:10.956Z,-1.50
2023-03-03T06:17:39.158Z,-1.40
2023-03-03T06:20:08.269Z,-1.30
2023-03-03T06:22:37.593Z,-1.30
2023-03-03T06:25:06.195Z,-1.30
2023-03-03T06:27:34.325Z,-1.20
2023-03-03T06:30:02.370Z,-1.20
2023-03-03T06:32:30.631Z,-1.20
2023-03-03T06:34:58.699Z,-1.10
2023-03-03T06:37:26.732Z,-1.20
2023-03-03T06:39:56.798Z,-1.20
2023-03-03T06:42:24.917Z,-1.10
2023-03-03T06:44:52.947Z,-1.20
2023-03-03T06:47:20.995Z,-1.20
2023-03-03T06:49:49.003Z,-1.10
2023-03-03T06:52:21.469Z,-1.10
2023-03-03T06:54:50.121Z,-1.00
2023-03-03T06:57:26.598Z,-1.00
2023-03-03T06:59:56.240Z,-0.90
2023-03-03T07:02:24.739Z,-0.70
2023-03-03T07:04:56.460Z,-0.70
2023-03-03T07:07:26.390Z,-0.60
2023-03-03T07:09:55.541Z,-0.60
2023-03-03T07:12:27.498Z,-0.60
2023-03-03T07:15:00.628Z,-0.60
2023-03-03T07:17:28.658Z,-0.60
2023-03-03T07:19:56.716Z,-0.60
2023-03-03T07:22:30.247Z,-0.60
2023-03-03T07:25:01.937Z,-0.60
2023-03-03T07:27:32.421Z,-0.60
2023-03-03T07:30:21.318Z,-0.50
2023-03-03T07:32:49.365Z,-0.40
2023-03-03T07:35:38.624Z,-0.30
2023-03-03T07:38:21.379Z,-0.20
2023-03-03T07:40:51.303Z,-0.20
2023-03-03T07:43:35.999Z,-0.10
2023-03-03T07:46:22.834Z,-0.10
2023-03-03T07:48:51.788Z,-0.10
2023-03-03T07:51:25.323Z,-0.10
2023-03-03T07:53:55.695Z,0.00
2023-03-03T07:56:30.613Z,0.00
2023-03-03T07:59:00.598Z,0.00
2023-03-03T08:01:40.993Z,0.10
2023-03-03T08:04:20.957Z,0.10
2023-03-03T08:06:54.158Z,0.20
2023-03-03T08:09:49.371Z,0.30
2023-03-03T08:12:41.072Z,0.30
2023-03-03T08:15:26.442Z,0.40
2023-03-03T08:17:56.937Z,0.40
2023-03-03T08:20:44.619Z,0.50
2023-03-03T08:23:13.007Z,0.50
2023-03-03T08:25:42.402Z,0.50
2023-03-03T08:28:10.565Z,0.60
2023-03-03T08:30:40.220Z,0.60
2023-03-03T08:33:08.139Z,0.60
2023-03-03T08:35:36.650Z,0.50
2023-03-03T08:38:05.248Z,0.40
2023-03-03T08:40:34.063Z,0.40
2023-03-03T08:43:02.082Z,0.40
2023-03-03T08:45:30.080Z,0.40
2023-03-03T08:47:59.861Z,0.40
2023-03-03T08:50:28.450Z,0.40
2023-03-03T08:52:56.606Z,0.40
2023-03-03T08:55:24.654Z,0.40
2023-03-03T08:57:52.754Z,0.50
2023-03-03T09:00:22.538Z,0.50
2023-03-03T09:02:51.664Z,0.60
2023-03-03T09:05:22.657Z,0.50
2023-03-03T09:07:51.719Z,0.50
2023-03-03T09:10:27.563Z,0.50
2023-03-03T09:12:58.322Z,0.60
2023-03-03T09:15:28.980Z,0.60
2023-03-03T09:18:00.223Z,0.60
2023-03-03T09:20:38.133Z,0.60
2023-03-03T09:23:35.430Z,0.60
2023-03-03T09:26:31.424Z,0.60
2023-03-03T09:29:12.757Z,0.60
2023-03-03T09:31:43.839Z,0.60
2023-03-03T09:34:24.572Z,0.60
2023-03-03T09:36:54.803Z,0.60
2023-03-03T09:39:25.183Z,0.50
2023-03-03T09:42:21.574Z,0.50
2023-03-03T09:45:12.776Z,0.60
2023-03-03T09:47:53.018Z,0.40
2023-03-03T09:50:30.998Z,0.40
2023-03-03T09:53:14.544Z,0.40
2023-03-03T09:55:51.395Z,0.40
2023-03-03T09:58:51.767Z,0.40
2023-03-03T10:01:59.049Z,0.50
2023-03-03T10:04:40.120Z,0.60
2023-03-03T10:07:19.550Z,0.70
2023-03-03T10:10:21.083Z,0.60
2023-03-03T10:12:58.384Z,0.60
2023-03-03T10:15:39.339Z,0.70
2023-03-03T10:18:16.486Z,0.60
2023-03-03T10:20:59.550Z,0.50
2023-03-03T10:23:43.750Z,0.50
2023-03-03T10:26:34.717Z,0.50
2023-03-03T10:29:23.504Z,0.50
2023-03-03T10:32:03.538Z,0.50
2023-03-03T10:34:51.927Z,0.40
2023-03-03T10:37:28.620Z,0.40
2023-03-03T10:40:10.806Z,0.60
2023-03-03T10:43:06.508Z,0.50
2023-03-03T10:45:49.760Z,0.50
2023-03-03T10:48:32.356Z,0.50
2023-03-03T10:51:09.453Z,0.40
2023-03-03T10:53:48.539Z,0.40
2023-03-03T10:56:32.091Z,0.40
2023-03-03T10:59:10.765Z,0.40
2023-03-03T11:01:48.416Z,0.40
2023-03-03T11:04:42.397Z,0.40
2023-03-03T11:07:15.703Z,0.40
2023-03-03T11:09:58.529Z,0.40
2023-03-03T11:12:41.180Z,0.40
2023-03-03T11:15:29.954Z,0.60
2023-03-03T11:18:13.224Z,0.50
2023-03-03T11:20:47.208Z,0.40
2023-03-03T11:23:34.643Z,0.40
2023-03-03T11:26:11.351Z,0.40
2023-03-03T11:28:55.492Z,0.40
2023-03-03T11:31:32.057Z,0.30
2023-03-03T11:34:11.341Z,0.30
2023-03-03T11:36:44.879Z,0.40
2023-03-03T11:39:17.385Z,0.40
2023-03-03T11:41:58.668Z,0.40
2023-03-03T11:44:32.484Z,0.40
2023-03-03T11:47:06.764Z,0.50
2023-03-03T11:49:38.374Z,0.40
2023-03-03T11:52:22.026Z,0.40
2023-03-03T11:54:55.498Z,0.40
2023-03-03T11:57:29.799Z,0.40
2023-03-03T12:00:06.094Z,0.30
2023-03-03T12:03:10.560Z,0.30
2023-03-03T12:06:01.387Z,0.30
2023-03-03T12:08:42.359Z,0.20
2023-03-03T12:11:16.357Z,0.20
2023-03-03T12:13:54.692Z,0.20
2023-03-03T12:16:30.700Z,0.30
2023-03-03T12:19:20.542Z,0.30
2023-03-03T12:22:07.540Z,0.40
2023-03-03T12:24:45.513Z,0.40
2023-03-03T12:27:23.072Z,0.40
2023-03-03T12:30:06.234Z,0.40
2023-03-03T12:32:49.241Z,0.50
2023-03-03T12:35:27.940Z,0.40
2023-03-03T12:38:01.048Z,0.30
2023-03-03T12:40:34.959Z,0.40
2023-03-03T12:43:32.010Z,0.30
2023-03-03T12:46:08.200Z,0.30
2023-03-03T12:48:42.172Z,0.30
2023-03-03T12:51:21.759Z,0.30
2023-03-03T12:54:24.984Z,0.10
2023-03-03T12:56:56.449Z,0.30
2023-03-03T12:59:40.664Z,0.40
2023-03-03T13:02:30.887Z,0.40
2023-03-03T13:05:07.928Z,0.40
2023-03-03T13:07:43.164Z,0.40
2023-03-03T13:10:19.406Z,0.50
2023-03-03T13:12:55.369Z,0.50
2023-03-03T13:15:32.236Z,0.40
2023-03-03T13:18:26.880Z,0.40
2023-03-03T13:21:00.891Z,0.50
2023-03-03T13:23:42.077Z,0.40
2023-03-03T13:26:16.865Z,0.40
2023-03-03T13:28:57.871Z,0.40
2023-03-03T13:31:32.561Z,0.40
2023-03-03T13:34:01.955Z,0.40
2023-03-03T13:36:36.014Z,0.50
2023-03-03T13:39:14.635Z,0.40
2023-03-03T13:41:49.122Z,0.50
2023-03-03T13:44:23.740Z,0.50
2023-03-03T13:47:02.030Z,0.50
2023-03-03T13:49:40.530Z,0.50
2023-03-03T13:52:11.037Z,0.40
2023-03-03T13:54:57.412Z,0.40
2023-03-03T13:57:43.680Z,0.40
2023-03-03T14:00:23.532Z,0.40
2023-03-03T14:03:09.884Z,0.40
2023-03-03T14:05:40.567Z,0.50
2023-03-03T14:08:15.309Z,0.40
2023-03-03T14:10:49.969Z,0.30
2023-03-03T14:13:26.018Z,0.40
2023-03-03T14:15:59.121Z,0.40
2023-03-03T14:18:31.809Z,0.40
2023-03-03T14:21:05.809Z,0.40
2023-03-03T14:23:41.961Z,0.40
2023-03-03T14:26:12.652Z,0.40
2023-03-03T14:28:44.012Z,0.30
2023-03-03T14:31:24.025Z,0.30
2023-03-03T14:34:01.391Z,0.30
2023-03-03T14:36:32.541Z,0.40
2023-03-03T14:39:00.969Z,0.40
2023-03-03T14:41:42.904Z,0.30
2023-03-03T14:44:27.626Z,0.40
2023-03-03T14:47:18.706Z,0.40
2023-03-03T14:49:46.944Z,0.30
2023-03-03T14:52:25.628Z,0.30
2023-03-03T14:54:55.208Z,0.30
2023-03-03T14:57:46.168Z,0.30
2023-03-03T15:00:35.241Z,0.30
2023-03-03T15:03:19.747Z,0.30
2023-03-03T15:05:52.063Z,0.30
2023-03-03T15:08:31.610Z,0.30
2023-03-03T15:11:15.031Z,0.30
2023-03-03T15:13:44.326Z,0.30
2023-03-03T15:16:17.598Z,0.30
2023-03-03T15:19:07.778Z,0.30
2023-03-03T15:21:38.139Z,0.30
2023-03-03T15:24:11.622Z,0.30
2023-03-03T15:26:47.662Z,0.30
2023-03-03T15:29:24.517Z,0.30
2023-03-03T15:31:58.694Z,0.30
2023-03-03T15:34:39.747Z,0.30
2023-03-03T15:37:21.092Z,0.30
2023-03-03T15:39:58.381Z,0.30
2023-03-03T15:42:35.669Z,0.30
2023-03-03T15:45:12.599Z,0.40
2023-03-03T15:47:56.770Z,0.40
2023-03-03T15:50:44.665Z,0.40
2023-03-03T15:53:25.136Z,0.40
2023-03-03T15:56:05.766Z,0.40
2023-03-03T15:59:16.961Z,0.40
2023-03-03T16:01:54.093Z,0.40
2023-03-03T16:04:25.702Z,0.30
2023-03-03T16:07:00.135Z,0.30
2023-03-03T16:09:41.868Z,0.30
2023-03-03T16:12:18.489Z,0.30
2023-03-03T16:15:00.154Z,0.20
2023-03-03T16:17:37.836Z,0.30
2023-03-03T16:20:17.589Z,0.30
2023-03-03T16:23:03.927Z,0.30
2023-03-03T16:25:49.106Z,0.20
2023-03-03T16:28:20.644Z,0.20
2023-03-03T16:30:54.758Z,0.20
2023-03-03T16:33:32.984Z,0.10
2023-03-03T16:36:06.280Z,0.10
2023-03-03T16:38:38.578Z,0.10
2023-03-03T16:41:10.675Z,0.10
2023-03-03T16:43:47.350Z,0.10
2023-03-03T16:46:26.979Z,0.10
2023-03-03T16:49:06.146Z,0.10
2023-03-03T16:51:45.593Z,0.10
2023-03-03T16:54:25.630Z,0.10
2023-03-03T16:57:04.504Z,0.10
2023-03-03T16:59:53.694Z,0.10
2023-03-03T17:02:50.589Z,0.10
2023-03-03T17:05:30.471Z,0.10
2023-03-03T17:08:16.703Z,0.10
2023-03-03T17:10:52.161Z,0.10
2023-03-03T17:13:57.736Z,0.10
2023-03-03T17:16:51.228Z,0.10
2023-03-03T17:19:31.156Z,0.10
2023-03-03T17:22:11.573Z,0.10
2023-03-03T17:24:49.068Z,0.10
2023-03-03T17:27:26.294Z,0.10
2023-03-03T17:30:07.027Z,0.10
2023-03-03T17:32:59.266Z,0.10
2023-03-03T17:35:42.279Z,0.10
2023-03-03T17:38:21.019Z,0.10
2023-03-03T17:40:59.438Z,0.10
2023-03-03T17:43:32.983Z,0.10
2023-03-03T17:46:04.300Z,0.10
2023-03-03T17:48:48.123Z,0.10
2023-03-03T17:51:37.430Z,0.10
2023-03-03T17:54:24.133Z,0.10
2023-03-03T17:57:03.331Z,0.10
2023-03-03T18:00:01.859Z,0.10
2023-03-03T18:02:55.597Z,0.10
2023-03-03T18:06:15.474Z,0.10
2023-03-03T18:08:59.510Z,0.10
2023-03-03T18:11:50.414Z,0.10
2023-03-03T18:15:01.746Z,0.10
2023-03-03T18:17:39.953Z,0.10
2023-03-03T18:20:46.363Z,0.10
2023-03-03T18:23:43.072Z,0.10
2023-03-03T18:26:30.991Z,0.10
2023-03-03T18:29:21.638Z,0.10
2023-03-03T18:32:04.158Z,0.10
2023-03-03T18:34:37.006Z,0.10
2023-03-03T18:37:10.459Z,0.10
2023-03-03T18:39:43.204Z,0.10
2023-03-03T18:42:30.469Z,0.10
2023-03-03T18:45:12.379Z,0.10
2023-03-03T18:48:04.830Z,0.10
2023-03-03T18:50:34.089Z,0.10
2023-03-03T18:53:22.248Z,0.00
2023-03-03T18:55:52.564Z,0.00
2023-03-03T18:58:36.245Z,0.00
2023-03-03T19:01:41.720Z,0.10
2023-03-03T19:04:24.960Z,0.00
2023-03-03T19:07:18.932Z,0.00
2023-03-03T19:09:52.593Z,0.00
2023-03-03T19:12:40.865Z,0.00
2023-03-03T19:15:49.864Z,0.10
2023-03-03T19:18:26.657Z,0.10
2023-03-03T19:20:59.128Z,0.10
2023-03-03T19:23:47.436Z,0.10
2023-03-03T19:26:46.074Z,0.10
2023-03-03T19:29:43.859Z,0.00
2023-03-03T19:32:31.731Z,0.00
2023-03-03T19:35:18.097Z,0.00
2023-03-03T19:37:55.305Z,0.10
2023-03-03T19:40:28.605Z,0.00
2023-03-03T19:43:06.186Z,0.10
2023-03-03T19:45:48.325Z,0.10
2023-03-03T19:48:26.484Z,0.10
2023-03-03T19:51:01.827Z,0.10
2023-03-03T19:53:37.606Z,0.10
2023-03-03T19:56:18.802Z,0.10
2023-03-03T19:59:07.393Z,0.10
2023-03-03T20:01:48.434Z,0.10
2023-03-03T20:04:59.454Z,0.10
2023-03-03T20:07:33.792Z,0.10
2023-03-03T20:10:11.382Z,0.10
2023-03-03T20:13:00.216Z,0.10
2023-03-03T20:15:33.578Z,0.10
2023-03-03T20:18:21.764Z,0.10
2023-03-03T20:21:02.435Z,0.10
2023-03-03T20:23:39.880Z,0.10
2023-03-03T20:26:15.379Z,0.10
2023-03-03T20:29:03.874Z,0.10
2023-03-03T20:31:38.361Z,0.10
2023-03-03T20:34:14.967Z,0.20
2023-03-03T20:36:54.904Z,0.10
2023-03-03T20:39:37.861Z,0.20
2023-03-03T20:42:18.931Z,0.20
2023-03-03T20:45:02.055Z,0.20
2023-03-03T20:47:39.736Z,0.20
2023-03-03T20:50:22.355Z,0.30
2023-03-03T20:53:03.110Z,0.30
2023-03-03T20:55:42.713Z,0.30
2023-03-03T20:58:16.498Z,0.30
2023-03-03T21:00:50.743Z,0.30
2023-03-03T21:03:25.191Z,0.30
2023-03-03T21:06:00.750Z,0.30
2023-03-03T21:08:53.290Z,0.30
2023-03-03T21:11:24.467Z,0.30
2023-03-03T21:13:54.271Z,0.30
2023-03-03T21:16:35.574Z,0.30
2023-03-03T21:19:05.404Z,0.40
2023-03-03T21:21:35.116Z,0.40
2023-03-03T21:24:03.218Z,0.40
2023-03-03T21:26:50.468Z,0.40
2023-03-03T21:29:21.562Z,0.40
2023-03-03T21:31:51.194Z,0.40
2023-03-03T21:34:24.768Z,0.40
2023-03-03T21:36:54.278Z,0.40
2023-03-03T21:39:25.329Z,0.40
2023-03-03T21:41:56.962Z,0.40
2023-03-03T21:44:46.602Z,0.40
2023-03-03T21:47:16.987Z,0.50
2023-03-03T21:49:45.874Z,0.50
2023-03-03T21:52:16.332Z,0.50
2023-03-03T21:54:44.507Z,0.50
2023-03-03T21:57:14.674Z,0.50
2023-03-03T21:59:42.898Z,0.50
2023-03-03T22:02:11.252Z,0.50
2023-03-03T22:04:39.447Z,0.50
2023-03-03T22:07:07.475Z,0.50
2023-03-03T22:09:35.649Z,0.50
2023-03-03T22:12:04.048Z,0.50
2023-03-03T22:14:33.376Z,0.50
2023-03-03T22:17:01.399Z,0.50
2023-03-03T22:19:29.379Z,0.50
2023-03-03T22:21:57.344Z,0.50
2023-03-03T22:24:25.290Z,0.50
2023-03-03T22:26:53.231Z,0.60
2023-03-03T22:29:23.148Z,0.50
2023-03-03T22:31:52.833Z,0.60
2023-03-03T22:34:20.964Z,0.60
2023-03-03T22:36:48.934Z,0.60
2023-03-03T22:39:16.874Z,0.60
2023-03-03T22:41:44.810Z,0.60
2023-03-03T22:44:12.780Z,0.60
2023-03-03T22:46:40.776Z,0.60
2023-03-03T22:49:10.076Z,0.60
2023-03-03T22:51:38.050Z,0.60
2023-03-03T22:54:06.177Z,0.60
2023-03-03T22:56:34.099Z,0.60
2023-03-03T22:59:02.220Z,0.60
2023-03-03T23:01:31.109Z,0.60
2023-03-03T23:03:59.006Z,0.60
2023-03-03T23:06:28.387Z,0.60
2023-03-03T23:08:56.341Z,0.70
2023-03-03T23:11:24.730Z,0.60
2023-03-03T23:13:52.670Z,0.60
2023-03-03T23:16:20.799Z,0.60
2023-03-03T23:18:48.742Z,0.60
2023-03-03T23:21:17.382Z,0.60
2023-03-03T23:23:46.634Z,0.60
2023-03-03T23:26:14.534Z,0.60
2023-03-03T23:28:42.547Z,0.60
2023-03-03T23:31:10.649Z,0.60
2023-03-03T23:33:38.788Z,0.60
2023-03-03T23:36:07.433Z,0.60
2023-03-03T23:38:35.353Z,0.60
2023-03-03T23:41:04.838Z,0.60
2023-03-03T23:43:33.544Z,0.70
2023-03-03T23:46:01.537Z,0.70
2023-03-03T23:48:29.454Z,0.70
2023-03-03T23:50:57.354Z,0.70
2023-03-03T23:53:25.316Z,0.70
2023-03-03T23:55:53.275Z,0.70
2023-03-03T23:58:22.606Z,0.70
